sensor_id;sensor_type;location;lat;lon;timestamp;pressure;altitude;pressure_sealevel;temperature;humidity
76124;BME280;65173;48.066;20.976;2023-08-20T00:02:11;100664.47;;;22.44;100.00
76124;BME280;65173;48.066;20.976;2023-08-20T00:05:14;100669.88;;;22.37;100.00
76124;BME280;65173;48.066;20.976;2023-08-20T00:08:16;100667.19;;;22.37;100.00
76124;BME280;65173;48.066;20.976;2023-08-20T00:11:19;100662.91;;;22.36;100.00
76124;BME280;65173;48.066;20.976;2023-08-20T00:14:51;100669.50;;;22.35;100.00
76124;BME280;65173;48.066;20.976;2023-08-20T00:17:54;100676.81;;;22.24;100.00
76124;BME280;65173;48.066;20.976;2023-08-20T00:20:58;100667.88;;;22.20;100.00
76124;BME280;65173;48.066;20.976;2023-08-20T00:24:00;100666.72;;;22.17;100.00
76124;BME280;65173;48.066;20.976;2023-08-20T00:27:03;100669.03;;;22.15;100.00
76124;BME280;65173;48.066;20.976;2023-08-20T00:30:06;100671.34;;;22.13;100.00
76124;BME280;65173;48.066;20.976;2023-08-20T00:33:09;100672.25;;;21.73;100.00
76124;BME280;65173;48.066;20.976;2023-08-20T00:36:12;100664.47;;;21.64;100.00
76124;BME280;65173;48.066;20.976;2023-08-20T00:39:14;100671.56;;;21.83;100.00
76124;BME280;65173;48.066;20.976;2023-08-20T00:42:17;100673.81;;;21.74;100.00
76124;BME280;65173;48.066;20.976;2023-08-20T00:45:20;100679.31;;;21.85;100.00
76124;BME280;65173;48.066;20.976;2023-08-20T00:48:23;100686.22;;;21.75;100.00
76124;BME280;65173;48.066;20.976;2023-08-20T00:51:26;100679.28;;;21.77;100.00
76124;BME280;65173;48.066;20.976;2023-08-20T00:54:31;100674.25;;;21.79;100.00
76124;BME280;65173;48.066;20.976;2023-08-20T00:57:36;100675.03;;;21.80;100.00
76124;BME280;65173;48.066;20.976;2023-08-20T01:00:39;100678.13;;;21.82;100.00
76124;BME280;65173;48.066;20.976;2023-08-20T01:03:42;100675.06;;;21.83;100.00
76124;BME280;65173;48.066;20.976;2023-08-20T01:06:56;100682.69;;;21.71;100.00
76124;BME280;65173;48.066;20.976;2023-08-20T01:10:25;100676.50;;;21.70;100.00
76124;BME280;65173;48.066;20.976;2023-08-20T01:13:30;100672.88;;;21.52;100.00
76124;BME280;65173;48.066;20.976;2023-08-20T01:16:32;100678.75;;;21.58;100.00
76124;BME280;65173;48.066;20.976;2023-08-20T01:29:04;100675.69;;;21.63;100.00
76124;BME280;65173;48.066;20.976;2023-08-20T01:32:08;100681.84;;;21.56;100.00
76124;BME280;65173;48.066;20.976;2023-08-20T01:35:12;100684.38;;;21.35;100.00
76124;BME280;65173;48.066;20.976;2023-08-20T01:38:17;100683.19;;;21.32;100.00
76124;BME280;65173;48.066;20.976;2023-08-20T01:41:20;100679.78;;;21.39;100.00
76124;BME280;65173;48.066;20.976;2023-08-20T01:44:22;100677.91;;;21.50;100.00
76124;BME280;65173;48.066;20.976;2023-08-20T01:47:25;100675.19;;;21.50;100.00
76124;BME280;65173;48.066;20.976;2023-08-20T01:50:27;100678.69;;;21.51;100.00
76124;BME280;65173;48.066;20.976;2023-08-20T01:53:30;100680.88;;;21.31;100.00
76124;BME280;65173;48.066;20.976;2023-08-20T01:56:32;100678.97;;;21.31;100.00
76124;BME280;65173;48.066;20.976;2023-08-20T01:59:35;100676.22;;;21.28;100.00
76124;BME280;65173;48.066;20.976;2023-08-20T02:02:38;100675.44;;;21.27;100.00
76124;BME280;65173;48.066;20.976;2023-08-20T02:05:40;100672.75;;;21.34;100.00
76124;BME280;65173;48.066;20.976;2023-08-20T02:08:44;100670.81;;;21.31;100.00
76124;BME280;65173;48.066;20.976;2023-08-20T02:11:46;100677.28;;;21.20;100.00
76124;BME280;65173;48.066;20.976;2023-08-20T02:14:49;100670.94;;;21.05;100.00
76124;BME280;65173;48.066;20.976;2023-08-20T02:17:56;100668.69;;;21.14;100.00
76124;BME280;65173;48.066;20.976;2023-08-20T02:21:00;100671.34;;;21.07;100.00
76124;BME280;65173;48.066;20.976;2023-08-20T02:24:02;100677.19;;;21.09;100.00
76124;BME280;65173;48.066;20.976;2023-08-20T02:27:06;100669.06;;;21.09;100.00
76124;BME280;65173;48.066;20.976;2023-08-20T02:30:08;100662.38;;;20.99;100.00
76124;BME280;65173;48.066;20.976;2023-08-20T02:33:11;100668.06;;;20.87;100.00
76124;BME280;65173;48.066;20.976;2023-08-20T02:36:14;100666.28;;;21.02;100.00
76124;BME280;65173;48.066;20.976;2023-08-20T02:39:16;100672.88;;;21.04;100.00
76124;BME280;65173;48.066;20.976;2023-08-20T02:42:19;100674.06;;;21.07;100.00
76124;BME280;65173;48.066;20.976;2023-08-20T02:45:21;100665.56;;;21.08;100.00
76124;BME280;65173;48.066;20.976;2023-08-20T02:48:26;100661.28;;;21.07;100.00
76124;BME280;65173;48.066;20.976;2023-08-20T02:51:29;100656.72;;;21.19;100.00
76124;BME280;65173;48.066;20.976;2023-08-20T02:54:31;100655.53;;;21.12;100.00
76124;BME280;65173;48.066;20.976;2023-08-20T02:57:34;100662.06;;;21.08;100.00
76124;BME280;65173;48.066;20.976;2023-08-20T03:00:37;100664.19;;;20.85;100.00
76124;BME280;65173;48.066;20.976;2023-08-20T03:03:40;100667.38;;;20.94;100.00
76124;BME280;65173;48.066;20.976;2023-08-20T03:06:44;100672.06;;;21.00;100.00
76124;BME280;65173;48.066;20.976;2023-08-20T03:09:47;100668.94;;;20.98;100.00
76124;BME280;65173;48.066;20.976;2023-08-20T03:12:49;100665.09;;;20.99;100.00
76124;BME280;65173;48.066;20.976;2023-08-20T03:15:52;100679.03;;;21.01;100.00
76124;BME280;65173;48.066;20.976;2023-08-20T03:18:54;100682.06;;;20.93;100.00
76124;BME280;65173;48.066;20.976;2023-08-20T03:21:56;100676.66;;;20.93;100.00
76124;BME280;65173;48.066;20.976;2023-08-20T03:24:59;100680.03;;;20.83;100.00
76124;BME280;65173;48.066;20.976;2023-08-20T03:28:01;100684.28;;;20.84;100.00
76124;BME280;65173;48.066;20.976;2023-08-20T03:31:04;100682.00;;;20.86;100.00
76124;BME280;65173;48.066;20.976;2023-08-20T03:34:11;100682.69;;;20.79;100.00
76124;BME280;65173;48.066;20.976;2023-08-20T03:37:14;100681.81;;;20.68;100.00
76124;BME280;65173;48.066;20.976;2023-08-20T03:40:16;100677.25;;;20.75;100.00
76124;BME280;65173;48.066;20.976;2023-08-20T03:43:20;100699.66;;;20.72;100.00
76124;BME280;65173;48.066;20.976;2023-08-20T03:46:23;100694.63;;;20.71;100.00
76124;BME280;65173;48.066;20.976;2023-08-20T03:49:25;100690.72;;;20.68;100.00
76124;BME280;65173;48.066;20.976;2023-08-20T03:52:28;100690.81;;;20.79;100.00
76124;BME280;65173;48.066;20.976;2023-08-20T03:55:30;100691.22;;;20.77;100.00
76124;BME280;65173;48.066;20.976;2023-08-20T03:58:33;100693.63;;;20.86;100.00
76124;BME280;65173;48.066;20.976;2023-08-20T04:01:37;100696.69;;;20.85;100.00
76124;BME280;65173;48.066;20.976;2023-08-20T04:04:39;100709.09;;;20.86;100.00
76124;BME280;65173;48.066;20.976;2023-08-20T04:07:42;100712.50;;;20.79;100.00
76124;BME280;65173;48.066;20.976;2023-08-20T04:10:44;100720.25;;;20.80;100.00
76124;BME280;65173;48.066;20.976;2023-08-20T04:13:48;100722.31;;;20.91;100.00
76124;BME280;65173;48.066;20.976;2023-08-20T04:16:51;100723.03;;;20.88;100.00
76124;BME280;65173;48.066;20.976;2023-08-20T04:19:53;100726.16;;;20.90;100.00
76124;BME280;65173;48.066;20.976;2023-08-20T04:22:56;100726.25;;;21.00;100.00
76124;BME280;65173;48.066;20.976;2023-08-20T04:25:58;100721.25;;;21.02;100.00
76124;BME280;65173;48.066;20.976;2023-08-20T04:29:00;100727.94;;;21.12;100.00
76124;BME280;65173;48.066;20.976;2023-08-20T04:32:05;100725.25;;;21.15;100.00
76124;BME280;65173;48.066;20.976;2023-08-20T04:35:07;100726.81;;;21.17;100.00
76124;BME280;65173;48.066;20.976;2023-08-20T04:38:10;100727.69;;;21.24;100.00
76124;BME280;65173;48.066;20.976;2023-08-20T04:41:13;100725.81;;;21.28;100.00
76124;BME280;65173;48.066;20.976;2023-08-20T04:44:15;100729.81;;;21.45;100.00
76124;BME280;65173;48.066;20.976;2023-08-20T04:47:19;100726.28;;;21.41;100.00
76124;BME280;65173;48.066;20.976;2023-08-20T04:50:21;100736.34;;;21.40;100.00
76124;BME280;65173;48.066;20.976;2023-08-20T04:53:24;100734.78;;;21.39;100.00
76124;BME280;65173;48.066;20.976;2023-08-20T04:56:27;100741.88;;;21.55;100.00
76124;BME280;65173;48.066;20.976;2023-08-20T04:59:30;100742.66;;;21.55;100.00
76124;BME280;65173;48.066;20.976;2023-08-20T05:03:11;100737.34;;;21.66;100.00
76124;BME280;65173;48.066;20.976;2023-08-20T05:06:14;100741.72;;;21.81;100.00
76124;BME280;65173;48.066;20.976;2023-08-20T05:09:16;100734.75;;;21.87;100.00
76124;BME280;65173;48.066;20.976;2023-08-20T05:12:19;100733.66;;;21.95;100.00
76124;BME280;65173;48.066;20.976;2023-08-20T05:15:22;100745.75;;;22.05;100.00
76124;BME280;65173;48.066;20.976;2023-08-20T05:18:25;100734.44;;;21.96;100.00
76124;BME280;65173;48.066;20.976;2023-08-20T05:21:29;100746.16;;;22.03;100.00
76124;BME280;65173;48.066;20.976;2023-08-20T05:24:32;100735.38;;;22.25;100.00
76124;BME280;65173;48.066;20.976;2023-08-20T05:27:34;100747.47;;;22.31;100.00
76124;BME280;65173;48.066;20.976;2023-08-20T05:30:39;100756.81;;;22.44;100.00
76124;BME280;65173;48.066;20.976;2023-08-20T05:33:42;100754.50;;;22.39;100.00
76124;BME280;65173;48.066;20.976;2023-08-20T05:36:44;100762.69;;;22.49;100.00
76124;BME280;65173;48.066;20.976;2023-08-20T05:39:48;100758.81;;;22.54;100.00
76124;BME280;65173;48.066;20.976;2023-08-20T05:42:51;100756.50;;;22.63;100.00
76124;BME280;65173;48.066;20.976;2023-08-20T05:45:54;100755.09;;;22.91;100.00
76124;BME280;65173;48.066;20.976;2023-08-20T05:48:58;100758.63;;;23.16;100.00
76124;BME280;65173;48.066;20.976;2023-08-20T05:52:05;100768.34;;;23.31;100.00
76124;BME280;65173;48.066;20.976;2023-08-20T05:55:07;100756.34;;;23.46;100.00
76124;BME280;65173;48.066;20.976;2023-08-20T05:58:10;100758.28;;;23.74;100.00
76124;BME280;65173;48.066;20.976;2023-08-20T06:01:13;100753.22;;;23.94;100.00
76124;BME280;65173;48.066;20.976;2023-08-20T06:04:16;100767.88;;;24.43;100.00
76124;BME280;65173;48.066;20.976;2023-08-20T06:07:18;100766.63;;;24.65;100.00
76124;BME280;65173;48.066;20.976;2023-08-20T06:10:21;100764.59;;;24.87;100.00
76124;BME280;65173;48.066;20.976;2023-08-20T06:13:23;100763.47;;;25.43;100.00
76124;BME280;65173;48.066;20.976;2023-08-20T06:16:26;100772.19;;;25.76;100.00
76124;BME280;65173;48.066;20.976;2023-08-20T06:19:28;100767.44;;;26.17;100.00
76124;BME280;65173;48.066;20.976;2023-08-20T06:22:31;100765.50;;;26.52;100.00
76124;BME280;65173;48.066;20.976;2023-08-20T06:25:34;100770.94;;;26.86;100.00
76124;BME280;65173;48.066;20.976;2023-08-20T06:28:36;100774.50;;;26.83;100.00
76124;BME280;65173;48.066;20.976;2023-08-20T06:31:39;100771.03;;;27.09;100.00
76124;BME280;65173;48.066;20.976;2023-08-20T06:34:41;100777.19;;;27.17;100.00
76124;BME280;65173;48.066;20.976;2023-08-20T06:37:44;100776.88;;;27.61;100.00
76124;BME280;65173;48.066;20.976;2023-08-20T06:40:46;100773.91;;;27.76;100.00
76124;BME280;65173;48.066;20.976;2023-08-20T06:43:49;100774.56;;;28.03;100.00
76124;BME280;65173;48.066;20.976;2023-08-20T06:46:51;100789.41;;;28.29;100.00
76124;BME280;65173;48.066;20.976;2023-08-20T06:49:54;100789.38;;;28.49;100.00
76124;BME280;65173;48.066;20.976;2023-08-20T06:52:56;100791.84;;;28.63;100.00
76124;BME280;65173;48.066;20.976;2023-08-20T06:56:00;100784.63;;;28.69;100.00
76124;BME280;65173;48.066;20.976;2023-08-20T06:59:02;100786.34;;;29.19;100.00
76124;BME280;65173;48.066;20.976;2023-08-20T07:02:05;100782.31;;;29.40;99.32
76124;BME280;65173;48.066;20.976;2023-08-20T07:05:08;100778.81;;;29.55;98.62
76124;BME280;65173;48.066;20.976;2023-08-20T07:08:11;100786.16;;;29.75;100.00
76124;BME280;65173;48.066;20.976;2023-08-20T07:11:14;100790.31;;;29.95;99.67
76124;BME280;65173;48.066;20.976;2023-08-20T07:14:16;100795.81;;;30.41;96.91
76124;BME280;65173;48.066;20.976;2023-08-20T07:17:19;100795.03;;;29.95;93.31
76124;BME280;65173;48.066;20.976;2023-08-20T07:20:21;100796.97;;;30.68;90.45
76124;BME280;65173;48.066;20.976;2023-08-20T07:23:24;100791.59;;;30.36;90.25
76124;BME280;65173;48.066;20.976;2023-08-20T07:26:27;100794.31;;;30.65;89.97
76124;BME280;65173;48.066;20.976;2023-08-20T07:29:29;100788.06;;;31.02;88.10
76124;BME280;65173;48.066;20.976;2023-08-20T07:32:32;100790.75;;;30.52;86.93
76124;BME280;65173;48.066;20.976;2023-08-20T07:35:34;100785.75;;;31.01;85.07
76124;BME280;65173;48.066;20.976;2023-08-20T07:38:38;100782.78;;;31.46;87.82
76124;BME280;65173;48.066;20.976;2023-08-20T07:41:43;100782.78;;;31.08;82.93
76124;BME280;65173;48.066;20.976;2023-08-20T07:44:45;100783.09;;;31.95;84.94
76124;BME280;65173;48.066;20.976;2023-08-20T07:47:48;100779.72;;;32.13;78.59
76124;BME280;65173;48.066;20.976;2023-08-20T07:50:50;100774.19;;;32.57;79.90
76124;BME280;65173;48.066;20.976;2023-08-20T07:53:53;100782.81;;;32.37;81.74
76124;BME280;65173;48.066;20.976;2023-08-20T07:56:55;100776.41;;;32.71;77.21
76124;BME280;65173;48.066;20.976;2023-08-20T07:59:58;100780.03;;;32.59;75.19
76124;BME280;65173;48.066;20.976;2023-08-20T08:03:00;100780.31;;;33.23;71.84
76124;BME280;65173;48.066;20.976;2023-08-20T08:06:03;100772.31;;;32.75;74.88
76124;BME280;65173;48.066;20.976;2023-08-20T08:09:18;100764.66;;;32.80;73.64
76124;BME280;65173;48.066;20.976;2023-08-20T08:12:22;100775.94;;;33.53;71.47
76124;BME280;65173;48.066;20.976;2023-08-20T08:15:25;100769.72;;;33.21;70.24
76124;BME280;65173;48.066;20.976;2023-08-20T08:18:27;100766.91;;;34.16;71.00
76124;BME280;65173;48.066;20.976;2023-08-20T08:21:30;100767.66;;;34.35;62.81
76124;BME280;65173;48.066;20.976;2023-08-20T08:24:32;100773.63;;;34.42;65.65
76124;BME280;65173;48.066;20.976;2023-08-20T08:27:34;100771.72;;;34.58;63.70
76124;BME280;65173;48.066;20.976;2023-08-20T08:30:51;100768.34;;;35.05;64.55
76124;BME280;65173;48.066;20.976;2023-08-20T08:33:54;100768.66;;;35.31;61.09
76124;BME280;65173;48.066;20.976;2023-08-20T08:36:56;100757.81;;;35.42;59.99
76124;BME280;65173;48.066;20.976;2023-08-20T08:39:59;100771.72;;;34.67;60.32
76124;BME280;65173;48.066;20.976;2023-08-20T08:43:02;100766.22;;;34.48;62.16
76124;BME280;65173;48.066;20.976;2023-08-20T08:46:12;100765.31;;;34.94;61.16
76124;BME280;65173;48.066;20.976;2023-08-20T08:49:16;100761.19;;;35.13;60.85
76124;BME280;65173;48.066;20.976;2023-08-20T08:52:19;100755.88;;;35.72;59.19
76124;BME280;65173;48.066;20.976;2023-08-20T08:55:22;100752.56;;;36.36;57.38
76124;BME280;65173;48.066;20.976;2023-08-20T08:58:25;100751.03;;;35.43;56.84
76124;BME280;65173;48.066;20.976;2023-08-20T09:01:27;100758.50;;;36.29;56.91
76124;BME280;65173;48.066;20.976;2023-08-20T09:04:31;100749.16;;;35.88;54.61
76124;BME280;65173;48.066;20.976;2023-08-20T09:07:34;100757.53;;;36.46;55.32
76124;BME280;65173;48.066;20.976;2023-08-20T09:10:36;100754.16;;;36.57;56.23
76124;BME280;65173;48.066;20.976;2023-08-20T09:13:40;100760.41;;;37.02;51.71
76124;BME280;65173;48.066;20.976;2023-08-20T09:16:43;100754.19;;;36.28;52.58
76124;BME280;65173;48.066;20.976;2023-08-20T09:19:46;100759.06;;;35.65;57.42
76124;BME280;65173;48.066;20.976;2023-08-20T09:22:49;100761.72;;;36.12;56.88
76124;BME280;65173;48.066;20.976;2023-08-20T09:25:53;100756.16;;;36.86;53.03
76124;BME280;65173;48.066;20.976;2023-08-20T09:28:55;100755.38;;;37.21;52.52
76124;BME280;65173;48.066;20.976;2023-08-20T09:32:01;100757.88;;;36.83;54.06
76124;BME280;65173;48.066;20.976;2023-08-20T09:35:05;100759.50;;;36.90;53.06
76124;BME280;65173;48.066;20.976;2023-08-20T09:38:08;100764.06;;;37.48;50.74
76124;BME280;65173;48.066;20.976;2023-08-20T09:41:12;100760.72;;;37.44;53.88
76124;BME280;65173;48.066;20.976;2023-08-20T09:44:16;100761.56;;;37.30;49.52
76124;BME280;65173;48.066;20.976;2023-08-20T09:47:19;100765.44;;;36.83;50.79
76124;BME280;65173;48.066;20.976;2023-08-20T09:50:24;100762.19;;;37.40;49.01
76124;BME280;65173;48.066;20.976;2023-08-20T09:53:35;100752.59;;;37.21;49.17
76124;BME280;65173;48.066;20.976;2023-08-20T09:56:40;100747.72;;;36.22;51.98
76124;BME280;65173;48.066;20.976;2023-08-20T09:59:45;100752.66;;;36.91;52.24
76124;BME280;65173;48.066;20.976;2023-08-20T10:02:49;100755.72;;;37.28;47.03
76124;BME280;65173;48.066;20.976;2023-08-20T10:05:52;100750.25;;;36.99;45.92
76124;BME280;65173;48.066;20.976;2023-08-20T10:08:56;100744.81;;;37.25;46.64
76124;BME280;65173;48.066;20.976;2023-08-20T10:12:00;100745.63;;;37.51;47.05
76124;BME280;65173;48.066;20.976;2023-08-20T10:15:04;100741.56;;;37.11;46.30
76124;BME280;65173;48.066;20.976;2023-08-20T10:18:07;100742.16;;;37.76;44.66
76124;BME280;65173;48.066;20.976;2023-08-20T10:21:12;100747.78;;;38.34;42.31
76124;BME280;65173;48.066;20.976;2023-08-20T10:24:18;100744.75;;;37.85;42.78
76124;BME280;65173;48.066;20.976;2023-08-20T10:27:26;100734.84;;;38.05;42.04
76124;BME280;65173;48.066;20.976;2023-08-20T10:30:29;100736.72;;;38.45;40.54
76124;BME280;65173;48.066;20.976;2023-08-20T10:33:33;100741.25;;;38.11;42.14
76124;BME280;65173;48.066;20.976;2023-08-20T10:36:41;100741.13;;;38.26;41.35
76124;BME280;65173;48.066;20.976;2023-08-20T10:39:53;100733.34;;;38.09;41.07
76124;BME280;65173;48.066;20.976;2023-08-20T10:43:01;100726.13;;;37.10;44.40
76124;BME280;65173;48.066;20.976;2023-08-20T10:46:04;100713.84;;;38.67;41.28
76124;BME280;65173;48.066;20.976;2023-08-20T10:49:16;100722.44;;;38.63;41.63
76124;BME280;65173;48.066;20.976;2023-08-20T10:52:25;100720.06;;;38.93;39.66
76124;BME280;65173;48.066;20.976;2023-08-20T10:55:27;100711.59;;;39.24;38.42
76124;BME280;65173;48.066;20.976;2023-08-20T10:58:30;100711.69;;;38.87;40.08
76124;BME280;65173;48.066;20.976;2023-08-20T11:01:33;100715.38;;;39.16;38.48
76124;BME280;65173;48.066;20.976;2023-08-20T11:04:36;100707.09;;;39.33;39.77
76124;BME280;65173;48.066;20.976;2023-08-20T11:07:39;100701.63;;;38.01;38.64
76124;BME280;65173;48.066;20.976;2023-08-20T11:10:41;100699.41;;;38.37;40.38
76124;BME280;65173;48.066;20.976;2023-08-20T11:13:44;100698.72;;;38.42;38.53
76124;BME280;65173;48.066;20.976;2023-08-20T11:16:47;100695.91;;;37.59;38.99
76124;BME280;65173;48.066;20.976;2023-08-20T11:19:51;100696.88;;;38.33;40.15
76124;BME280;65173;48.066;20.976;2023-08-20T11:23:09;100689.72;;;39.06;40.53
76124;BME280;65173;48.066;20.976;2023-08-20T11:26:14;100689.91;;;38.54;37.87
76124;BME280;65173;48.066;20.976;2023-08-20T11:29:17;100695.31;;;38.01;39.66
76124;BME280;65173;48.066;20.976;2023-08-20T11:32:25;100693.81;;;38.31;38.26
76124;BME280;65173;48.066;20.976;2023-08-20T11:35:28;100694.81;;;39.02;41.20
76124;BME280;65173;48.066;20.976;2023-08-20T11:38:31;100687.09;;;37.86;41.98
76124;BME280;65173;48.066;20.976;2023-08-20T11:41:37;100692.56;;;38.64;40.51
76124;BME280;65173;48.066;20.976;2023-08-20T11:44:45;100675.38;;;38.08;37.13
76124;BME280;65173;48.066;20.976;2023-08-20T11:47:48;100675.81;;;37.69;39.00
76124;BME280;65173;48.066;20.976;2023-08-20T11:50:50;100672.53;;;38.28;40.33
76124;BME280;65173;48.066;20.976;2023-08-20T11:53:53;100679.25;;;38.84;38.81
76124;BME280;65173;48.066;20.976;2023-08-20T11:57:02;100666.78;;;39.39;38.13
76124;BME280;65173;48.066;20.976;2023-08-20T12:00:06;100665.00;;;39.42;34.94
76124;BME280;65173;48.066;20.976;2023-08-20T12:03:18;100669.34;;;38.89;37.39
76124;BME280;65173;48.066;20.976;2023-08-20T12:06:22;100661.47;;;38.39;38.34
76124;BME280;65173;48.066;20.976;2023-08-20T12:09:31;100662.22;;;38.08;37.58
76124;BME280;65173;48.066;20.976;2023-08-20T12:12:34;100649.94;;;38.20;37.73
76124;BME280;65173;48.066;20.976;2023-08-20T12:15:36;100654.25;;;39.01;36.47
76124;BME280;65173;48.066;20.976;2023-08-20T12:18:39;100654.66;;;39.65;35.33
76124;BME280;65173;48.066;20.976;2023-08-20T12:21:41;100646.00;;;39.46;35.68
76124;BME280;65173;48.066;20.976;2023-08-20T12:24:45;100643.63;;;39.05;33.28
76124;BME280;65173;48.066;20.976;2023-08-20T12:27:47;100655.72;;;38.54;37.18
76124;BME280;65173;48.066;20.976;2023-08-20T12:30:50;100648.41;;;38.57;36.66
76124;BME280;65173;48.066;20.976;2023-08-20T12:33:52;100646.00;;;38.38;37.28
76124;BME280;65173;48.066;20.976;2023-08-20T12:36:55;100645.84;;;38.53;35.74
76124;BME280;65173;48.066;20.976;2023-08-20T12:39:57;100634.56;;;38.73;36.33
76124;BME280;65173;48.066;20.976;2023-08-20T12:43:00;100625.22;;;37.71;39.79
76124;BME280;65173;48.066;20.976;2023-08-20T12:46:02;100625.59;;;37.58;38.43
76124;BME280;65173;48.066;20.976;2023-08-20T12:49:05;100624.69;;;36.80;41.09
76124;BME280;65173;48.066;20.976;2023-08-20T12:52:08;100624.78;;;37.78;37.15
76124;BME280;65173;48.066;20.976;2023-08-20T12:55:10;100618.69;;;38.42;38.28
76124;BME280;65173;48.066;20.976;2023-08-20T12:58:13;100617.47;;;38.54;38.66
76124;BME280;65173;48.066;20.976;2023-08-20T13:01:15;100608.25;;;38.80;39.27
76124;BME280;65173;48.066;20.976;2023-08-20T13:04:19;100611.66;;;38.10;38.01
76124;BME280;65173;48.066;20.976;2023-08-20T13:07:22;100615.59;;;38.35;36.70
76124;BME280;65173;48.066;20.976;2023-08-20T13:10:25;100610.34;;;37.28;37.41
76124;BME280;65173;48.066;20.976;2023-08-20T13:13:31;100606.22;;;38.01;37.10
76124;BME280;65173;48.066;20.976;2023-08-20T13:16:34;100608.94;;;37.90;37.86
76124;BME280;65173;48.066;20.976;2023-08-20T13:19:37;100600.56;;;36.92;35.18
76124;BME280;65173;48.066;20.976;2023-08-20T13:22:39;100605.41;;;37.37;38.77
76124;BME280;65173;48.066;20.976;2023-08-20T13:25:42;100601.09;;;37.62;36.94
76124;BME280;65173;48.066;20.976;2023-08-20T13:28:45;100603.91;;;37.94;37.67
76124;BME280;65173;48.066;20.976;2023-08-20T13:31:48;100615.34;;;38.01;38.22
76124;BME280;65173;48.066;20.976;2023-08-20T13:34:50;100608.16;;;37.63;35.41
76124;BME280;65173;48.066;20.976;2023-08-20T13:37:53;100606.50;;;38.03;35.28
76124;BME280;65173;48.066;20.976;2023-08-20T13:40:55;100611.53;;;38.30;37.66
76124;BME280;65173;48.066;20.976;2023-08-20T13:43:59;100604.44;;;37.66;35.31
76124;BME280;65173;48.066;20.976;2023-08-20T13:47:01;100594.63;;;37.71;36.40
76124;BME280;65173;48.066;20.976;2023-08-20T13:50:04;100592.66;;;37.05;36.77
76124;BME280;65173;48.066;20.976;2023-08-20T13:53:07;100589.19;;;36.69;37.31
76124;BME280;65173;48.066;20.976;2023-08-20T13:56:09;100591.03;;;36.72;37.68
76124;BME280;65173;48.066;20.976;2023-08-20T13:59:12;100591.97;;;36.69;38.00
76124;BME280;65173;48.066;20.976;2023-08-20T14:02:14;100591.75;;;36.73;39.52
76124;BME280;65173;48.066;20.976;2023-08-20T14:05:17;100590.25;;;36.72;39.48
76124;BME280;65173;48.066;20.976;2023-08-20T14:08:20;100586.41;;;36.49;38.30
76124;BME280;65173;48.066;20.976;2023-08-20T14:11:22;100582.25;;;36.24;38.45
76124;BME280;65173;48.066;20.976;2023-08-20T14:14:25;100593.19;;;36.13;39.01
76124;BME280;65173;48.066;20.976;2023-08-20T14:17:27;100586.44;;;36.34;38.43
76124;BME280;65173;48.066;20.976;2023-08-20T14:20:30;100581.78;;;36.26;38.64
76124;BME280;65173;48.066;20.976;2023-08-20T14:23:33;100582.19;;;35.89;37.93
76124;BME280;65173;48.066;20.976;2023-08-20T14:26:35;100579.69;;;36.06;38.92
76124;BME280;65173;48.066;20.976;2023-08-20T14:29:37;100578.66;;;35.59;38.67
76124;BME280;65173;48.066;20.976;2023-08-20T14:32:40;100579.03;;;35.67;39.56
76124;BME280;65173;48.066;20.976;2023-08-20T14:35:44;100581.91;;;35.87;40.41
76124;BME280;65173;48.066;20.976;2023-08-20T14:38:47;100581.63;;;35.56;39.57
76124;BME280;65173;48.066;20.976;2023-08-20T14:41:49;100576.56;;;35.39;40.27
76124;BME280;65173;48.066;20.976;2023-08-20T14:44:51;100576.38;;;35.58;41.95
76124;BME280;65173;48.066;20.976;2023-08-20T14:47:56;100581.53;;;35.11;42.60
76124;BME280;65173;48.066;20.976;2023-08-20T14:50:58;100577.00;;;35.23;41.99
76124;BME280;65173;48.066;20.976;2023-08-20T14:54:00;100577.13;;;34.90;42.67
76124;BME280;65173;48.066;20.976;2023-08-20T14:57:03;100575.25;;;35.11;41.98
76124;BME280;65173;48.066;20.976;2023-08-20T15:00:06;100569.66;;;34.96;42.43
76124;BME280;65173;48.066;20.976;2023-08-20T15:03:10;100573.00;;;34.76;42.70
76124;BME280;65173;48.066;20.976;2023-08-20T15:06:13;100566.19;;;34.63;44.23
76124;BME280;65173;48.066;20.976;2023-08-20T15:09:16;100572.53;;;34.87;43.99
76124;BME280;65173;48.066;20.976;2023-08-20T15:12:19;100568.63;;;34.70;42.38
76124;BME280;65173;48.066;20.976;2023-08-20T15:15:21;100571.88;;;34.92;42.31
76124;BME280;65173;48.066;20.976;2023-08-20T15:18:24;100570.09;;;34.80;43.88
76124;BME280;65173;48.066;20.976;2023-08-20T15:21:26;100563.72;;;34.65;44.59
76124;BME280;65173;48.066;20.976;2023-08-20T15:24:30;100567.97;;;34.51;43.50
76124;BME280;65173;48.066;20.976;2023-08-20T15:27:33;100564.91;;;34.73;44.11
76124;BME280;65173;48.066;20.976;2023-08-20T15:30:37;100563.91;;;34.37;42.27
76124;BME280;65173;48.066;20.976;2023-08-20T15:33:40;100562.66;;;34.38;43.11
76124;BME280;65173;48.066;20.976;2023-08-20T15:36:42;100564.91;;;34.49;43.15
76124;BME280;65173;48.066;20.976;2023-08-20T15:39:44;100551.34;;;34.51;43.04
76124;BME280;65173;48.066;20.976;2023-08-20T15:42:47;100564.59;;;34.14;43.98
76124;BME280;65173;48.066;20.976;2023-08-20T15:45:49;100565.78;;;34.22;44.77
76124;BME280;65173;48.066;20.976;2023-08-20T15:48:52;100559.75;;;34.00;45.94
76124;BME280;65173;48.066;20.976;2023-08-20T15:51:55;100567.53;;;33.59;46.54